Time;durP1;ratioP1;P1;durP2;ratioP2;P2;SDS_P1;SDS_P2;PMS_P1;PMS_P2;Temp;Humidity;BMP_temperature;BMP_pressure;BME280_temperature;BME280_humidity;BME280_pressure;Samples;Min_cycle;Max_cycle;Signal;HPM_P1;HPM_P2
2023/04/20 00:00:32;;;;;;;13.20;10.30;;;4.90;99.90;;;;;;5037152;28;20461;-80
2023/04/20 00:03:00;;;;;;;12.03;8.73;;;4.90;99.90;;;;;;5044948;28;21065;-80
2023/04/20 00:05:27;;;;;;;9.87;8.33;;;5.00;99.90;;;;;;5039323;28;20449;-80
2023/04/20 00:07:56;;;;;;;10.87;8.57;;;4.90;99.90;;;;;;5042005;28;20449;-80
2023/04/20 00:10:23;;;;;;;12.07;9.60;;;4.90;99.90;;;;;;5042715;28;20469;-80
2023/04/20 00:12:50;;;;;;;13.87;9.90;;;4.90;99.90;;;;;;5042305;28;20457;-80
2023/04/20 00:15:17;;;;;;;13.40;9.90;;;5.00;99.90;;;;;;5044176;28;20566;-80
2023/04/20 00:17:45;;;;;;;14.03;10.87;;;5.20;99.90;;;;;;5041156;28;20868;-81
2023/04/20 00:20:14;;;;;;;12.80;10.10;;;5.10;99.90;;;;;;5045553;28;20452;-80
2023/04/20 00:22:41;;;;;;;12.10;9.47;;;5.00;99.90;;;;;;5043447;28;20577;-80
2023/04/20 00:25:10;;;;;;;15.40;9.37;;;5.10;99.90;;;;;;5035910;28;20538;-80
2023/04/20 00:27:37;;;;;;;11.70;9.53;;;5.20;99.90;;;;;;5036881;28;20816;-80
2023/04/20 00:30:04;;;;;;;12.67;9.20;;;5.20;99.90;;;;;;5039694;28;20493;-80
2023/04/20 00:32:31;;;;;;;14.60;8.80;;;5.10;99.90;;;;;;5041058;28;20514;-81
2023/04/20 00:34:59;;;;;;;12.50;8.83;;;5.10;99.90;;;;;;5037660;28;20473;-80
2023/04/20 00:37:27;;;;;;;11.10;9.73;;;5.20;99.90;;;;;;5045132;28;20453;-81
2023/04/20 00:39:55;;;;;;;14.60;9.27;;;5.20;99.90;;;;;;5036181;28;20460;-80
2023/04/20 00:42:23;;;;;;;14.20;9.57;;;5.10;99.90;;;;;;5039833;28;20526;-80
2023/04/20 00:44:50;;;;;;;13.00;9.80;;;5.10;99.90;;;;;;5040289;28;20534;-80
2023/04/20 00:47:17;;;;;;;14.50;10.10;;;5.00;99.90;;;;;;5043693;28;20678;-81
2023/04/20 00:49:44;;;;;;;11.07;9.50;;;5.00;99.90;;;;;;5042626;28;20535;-81
2023/04/20 00:52:11;;;;;;;12.80;10.40;;;5.00;99.90;;;;;;5037556;28;20481;-81
2023/04/20 00:54:39;;;;;;;9.37;8.37;;;5.00;99.90;;;;;;5037624;28;20593;-81
2023/04/20 00:57:06;;;;;;;11.83;10.63;;;5.10;99.90;;;;;;5040873;28;20484;-80
2023/04/20 00:59:34;;;;;;;13.70;9.30;;;5.10;99.90;;;;;;5044606;28;20473;-81
2023/04/20 01:02:01;;;;;;;14.13;10.63;;;5.20;99.90;;;;;;5040033;28;21013;-80
2023/04/20 01:04:29;;;;;;;15.87;10.23;;;5.20;99.90;;;;;;5044410;28;20467;-80
2023/04/20 01:06:56;;;;;;;13.63;10.13;;;5.30;99.90;;;;;;5034632;28;20520;-81
2023/04/20 01:09:23;;;;;;;12.17;10.30;;;5.30;99.90;;;;;;5042360;28;21113;-80
2023/04/20 01:11:50;;;;;;;14.00;11.43;;;5.20;99.90;;;;;;5043005;28;20449;-81
2023/04/20 01:14:17;;;;;;;11.60;9.30;;;5.10;99.90;;;;;;5036360;28;20526;-81
2023/04/20 01:16:46;;;;;;;10.00;9.00;;;5.20;99.90;;;;;;5034506;28;20839;-81
2023/04/20 01:19:13;;;;;;;15.17;10.90;;;5.20;99.90;;;;;;5038563;28;20457;-80
2023/04/20 01:21:41;;;;;;;11.53;10.33;;;5.20;99.90;;;;;;5044927;28;20858;-81
2023/04/20 01:24:10;;;;;;;16.50;11.30;;;5.20;99.90;;;;;;5043153;28;20471;-81
2023/04/20 01:26:37;;;;;;;11.87;10.40;;;5.10;99.90;;;;;;5040464;28;20461;-81
2023/04/20 01:29:04;;;;;;;12.10;10.53;;;5.00;99.90;;;;;;5041760;28;20558;-81
2023/04/20 01:31:31;;;;;;;14.03;10.80;;;5.00;99.90;;;;;;5043663;28;20971;-80
2023/04/20 01:33:58;;;;;;;12.43;10.70;;;4.90;99.90;;;;;;5035680;28;20453;-80
2023/04/20 01:36:25;;;;;;;16.30;11.00;;;4.90;99.90;;;;;;5041050;28;20522;-80
2023/04/20 01:38:52;;;;;;;15.33;13.20;;;4.90;99.90;;;;;;5040525;28;20472;-80
2023/04/20 01:41:21;;;;;;;16.93;12.30;;;4.90;99.90;;;;;;5040113;28;20504;-80
2023/04/20 01:43:48;;;;;;;16.30;12.00;;;4.90;99.90;;;;;;5036364;28;20449;-80
2023/04/20 01:46:15;;;;;;;17.43;12.13;;;4.90;99.90;;;;;;5041530;28;20510;-80
2023/04/20 01:48:42;;;;;;;16.63;11.53;;;4.90;99.90;;;;;;5031943;28;20548;-80
2023/04/20 01:51:09;;;;;;;19.60;14.70;;;4.90;99.90;;;;;;5038766;28;20518;-80
2023/04/20 01:53:36;;;;;;;17.50;12.50;;;4.90;99.90;;;;;;5043402;28;20453;-80
2023/04/20 01:56:03;;;;;;;21.17;15.30;;;4.90;99.90;;;;;;5041697;28;20514;-80
2023/04/20 01:58:32;;;;;;;27.17;17.10;;;4.80;99.90;;;;;;5028012;28;20563;-80
2023/04/20 02:01:01;;;;;;;26.77;18.00;;;4.80;99.90;;;;;;5041561;28;20913;-80
2023/04/20 02:03:28;;;;;;;26.80;15.90;;;4.80;99.90;;;;;;5038323;28;20527;-81
2023/04/20 02:05:55;;;;;;;25.33;17.40;;;4.70;99.90;;;;;;5037675;28;20450;-80
2023/04/20 02:08:22;;;;;;;21.67;15.70;;;4.80;99.90;;;;;;5043167;28;20510;-81
2023/04/20 02:10:49;;;;;;;21.30;15.80;;;4.90;99.90;;;;;;5038522;28;20461;-80
2023/04/20 02:13:16;;;;;;;25.97;16.90;;;4.90;99.90;;;;;;5033725;28;20460;-80
2023/04/20 02:15:45;;;;;;;23.63;16.80;;;4.90;99.90;;;;;;5042821;28;20519;-80
2023/04/20 02:18:12;;;;;;;26.43;17.93;;;5.00;99.90;;;;;;5034144;28;20457;-80
2023/04/20 02:20:39;;;;;;;25.60;16.87;;;5.10;99.90;;;;;;5044200;28;20472;-80
2023/04/20 02:23:06;;;;;;;22.80;18.00;;;5.10;99.90;;;;;;5029012;28;20530;-80
2023/04/20 02:25:32;;;;;;;20.83;15.90;;;5.10;99.90;;;;;;5044107;28;20521;-80
2023/04/20 02:27:59;;;;;;;23.87;16.90;;;5.10;99.90;;;;;;5030895;28;20469;-80
2023/04/20 02:30:26;;;;;;;19.50;15.40;;;5.10;99.90;;;;;;5036048;28;20484;-80
2023/04/20 02:32:55;;;;;;;18.90;14.27;;;5.10;99.90;;;;;;5034920;28;20466;-80
2023/04/20 02:35:21;;;;;;;26.47;16.33;;;5.20;99.90;;;;;;5043016;28;20449;-80
2023/04/20 02:37:48;;;;;;;20.77;15.83;;;5.20;99.90;;;;;;5038286;28;20637;-80
2023/04/20 02:40:16;;;;;;;19.07;14.43;;;5.30;99.90;;;;;;5039793;28;20437;-80
2023/04/20 02:42:42;;;;;;;27.37;17.63;;;5.10;99.90;;;;;;5035153;28;20511;-80
2023/04/20 02:45:11;;;;;;;20.47;16.20;;;5.10;99.90;;;;;;5036840;28;20475;-80
2023/04/20 02:47:38;;;;;;;24.17;17.53;;;5.10;99.90;;;;;;5042071;28;20444;-80
2023/04/20 02:50:08;;;;;;;20.50;14.70;;;5.10;99.90;;;;;;5038029;28;20550;-80
2023/04/20 02:52:35;;;;;;;27.50;17.80;;;5.20;99.90;;;;;;5034397;28;20465;-80
2023/04/20 02:55:02;;;;;;;26.87;18.33;;;5.20;99.90;;;;;;5038690;28;20478;-80
2023/04/20 02:57:29;;;;;;;27.43;18.73;;;5.10;99.90;;;;;;5043199;28;20481;-80
2023/04/20 02:59:56;;;;;;;28.80;19.63;;;5.10;99.90;;;;;;5035543;28;20507;-80
2023/04/20 03:02:23;;;;;;;23.60;16.90;;;5.00;99.90;;;;;;5042246;28;20484;-80
2023/04/20 03:04:50;;;;;;;29.47;17.60;;;4.90;99.90;;;;;;5036795;28;20535;-80
2023/04/20 03:07:18;;;;;;;21.00;16.10;;;5.00;99.90;;;;;;5044471;28;20469;-80
2023/04/20 03:09:45;;;;;;;26.83;19.40;;;5.00;99.90;;;;;;5037311;28;20485;-80
2023/04/20 03:12:13;;;;;;;29.00;19.40;;;5.00;99.90;;;;;;5045269;28;20465;-80
2023/04/20 03:14:40;;;;;;;26.90;19.17;;;5.10;99.90;;;;;;5034401;28;20449;-80
2023/04/20 03:17:07;;;;;;;25.97;19.10;;;5.00;99.90;;;;;;5044004;28;20717;-80
2023/04/20 03:19:35;;;;;;;21.97;17.07;;;5.00;99.90;;;;;;5046261;28;20448;-80
2023/04/20 03:22:01;;;;;;;28.00;18.60;;;5.00;99.90;;;;;;5044718;28;20450;-80
2023/04/20 03:24:30;;;;;;;25.70;19.30;;;4.90;99.90;;;;;;5046103;28;20483;-80
2023/04/20 03:26:57;;;;;;;26.53;19.57;;;4.90;99.90;;;;;;5041750;28;20491;-79
2023/04/20 03:29:24;;;;;;;28.60;20.90;;;5.00;99.90;;;;;;5042540;28;21037;-80
2023/04/20 03:31:51;;;;;;;28.10;19.93;;;5.00;99.90;;;;;;5044101;28;20481;-80
2023/04/20 03:34:18;;;;;;;31.27;22.27;;;5.00;99.90;;;;;;5039362;28;20461;-80
2023/04/20 03:36:45;;;;;;;29.10;20.77;;;5.10;99.90;;;;;;5035581;28;20830;-80
2023/04/20 03:39:12;;;;;;;28.80;21.13;;;5.10;99.90;;;;;;5038350;28;20528;-80
2023/04/20 03:41:40;;;;;;;28.07;20.10;;;5.10;99.90;;;;;;5041573;28;20466;-80
2023/04/20 03:44:07;;;;;;;35.00;21.00;;;5.10;99.90;;;;;;5042661;28;20857;-80
2023/04/20 03:46:35;;;;;;;35.40;21.13;;;5.10;99.90;;;;;;5046402;28;20441;-80
2023/04/20 03:49:02;;;;;;;31.70;21.20;;;5.00;99.90;;;;;;5039356;28;20958;-80
2023/04/20 03:51:29;;;;;;;22.60;18.10;;;5.10;99.90;;;;;;5032998;28;20480;-80
2023/04/20 03:53:56;;;;;;;28.47;22.40;;;5.10;99.90;;;;;;5033003;28;20717;-80
2023/04/20 03:56:23;;;;;;;27.63;20.27;;;5.10;99.90;;;;;;5045718;28;20784;-80
2023/04/20 03:58:51;;;;;;;26.20;19.27;;;5.10;99.90;;;;;;5043367;28;20489;-80
2023/04/20 04:01:18;;;;;;;26.90;19.17;;;5.00;99.90;;;;;;5039856;28;20547;-80
2023/04/20 04:03:45;;;;;;;27.53;18.73;;;5.00;99.90;;;;;;5045310;28;20510;-80
2023/04/20 04:06:12;;;;;;;27.60;19.73;;;5.00;99.90;;;;;;5043809;28;20448;-80
2023/04/20 04:08:39;;;;;;;28.60;19.80;;;5.00;99.90;;;;;;5042256;28;20457;-80
2023/04/20 04:11:06;;;;;;;30.67;21.83;;;5.00;99.90;;;;;;5037915;28;20654;-80
2023/04/20 04:13:33;;;;;;;30.10;20.77;;;5.00;99.90;;;;;;5042807;28;20453;-80
2023/04/20 04:16:01;;;;;;;30.20;22.57;;;5.00;99.90;;;;;;5037745;28;20546;-80
2023/04/20 04:18:31;;;;;;;34.17;22.60;;;5.00;99.90;;;;;;5040635;28;20883;-80
2023/04/20 04:20:58;;;;;;;27.57;19.50;;;5.00;99.90;;;;;;5032566;28;20462;-80
2023/04/20 04:23:25;;;;;;;30.70;20.27;;;5.00;99.90;;;;;;5041751;28;20522;-80
2023/04/20 04:25:52;;;;;;;29.60;23.33;;;5.00;99.90;;;;;;5036180;28;20861;-80
2023/04/20 04:28:19;;;;;;;29.20;20.90;;;4.90;99.90;;;;;;5042231;28;20460;-80
2023/04/20 04:30:47;;;;;;;32.53;21.40;;;5.00;99.90;;;;;;5044416;28;20551;-80
2023/04/20 04:33:17;;;;;;;32.37;20.90;;;5.00;99.90;;;;;;5034040;28;20476;-80
2023/04/20 04:35:44;;;;;;;28.97;23.00;;;5.00;99.90;;;;;;5039918;28;20474;-80
2023/04/20 04:38:12;;;;;;;23.97;18.83;;;5.00;99.90;;;;;;5037943;28;20503;-80
2023/04/20 04:40:40;;;;;;;33.57;22.73;;;5.00;99.90;;;;;;5041349;28;20499;-80
2023/04/20 04:43:09;;;;;;;37.10;23.00;;;5.10;99.90;;;;;;5037435;28;20462;-80
2023/04/20 04:45:38;;;;;;;30.03;20.07;;;5.10;99.90;;;;;;5046016;28;20694;-80
2023/04/20 04:48:05;;;;;;;33.43;23.17;;;5.10;99.90;;;;;;5040860;28;20872;-80
2023/04/20 04:50:34;;;;;;;34.83;22.23;;;5.10;99.90;;;;;;5040108;28;20485;-80
2023/04/20 04:53:01;;;;;;;29.47;20.20;;;5.00;99.90;;;;;;5043151;28;20489;-80
2023/04/20 04:55:28;;;;;;;32.97;21.37;;;5.10;99.90;;;;;;5040892;28;20489;-80
2023/04/20 04:57:54;;;;;;;26.37;19.73;;;5.10;99.90;;;;;;5044996;28;20567;-80
2023/04/20 05:00:22;;;;;;;28.90;21.03;;;5.00;99.90;;;;;;5039699;28;20493;-80
2023/04/20 05:02:49;;;;;;;31.70;22.00;;;5.00;99.90;;;;;;5044253;28;20784;-80
2023/04/20 05:05:16;;;;;;;27.90;19.60;;;5.00;99.90;;;;;;5038083;28;20468;-80
2023/04/20 05:07:45;;;;;;;29.60;20.50;;;5.10;99.90;;;;;;5043016;28;20833;-80
2023/04/20 05:10:12;;;;;;;28.53;19.93;;;5.10;99.90;;;;;;5041703;28;21003;-80
2023/04/20 05:12:39;;;;;;;25.27;17.87;;;5.10;99.90;;;;;;5034594;28;20922;-80
2023/04/20 05:15:07;;;;;;;22.93;16.57;;;5.00;99.90;;;;;;5042194;28;20522;-81
2023/04/20 05:17:34;;;;;;;25.50;15.60;;;5.00;99.90;;;;;;5042715;28;20637;-80
2023/04/20 05:20:01;;;;;;;26.40;17.20;;;5.00;99.90;;;;;;5032570;28;20464;-80
2023/04/20 05:22:29;;;;;;;20.73;14.90;;;5.00;99.90;;;;;;5039467;28;20472;-80
2023/04/20 05:24:57;;;;;;;21.90;16.60;;;5.00;99.90;;;;;;5044573;28;20463;-80
2023/04/20 05:27:24;;;;;;;21.07;16.00;;;5.00;99.90;;;;;;5038533;28;20456;-80
2023/04/20 05:29:51;;;;;;;19.13;15.60;;;5.00;99.90;;;;;;5044599;28;20558;-81
2023/04/20 05:32:18;;;;;;;23.60;17.40;;;5.00;99.90;;;;;;5039244;28;20600;-81
2023/04/20 05:34:45;;;;;;;23.40;15.87;;;5.10;99.90;;;;;;5043578;28;20477;-81
2023/04/20 05:37:12;;;;;;;24.07;15.70;;;5.20;99.90;;;;;;5029473;28;20539;-80
2023/04/20 05:39:39;;;;;;;21.93;14.37;;;5.20;99.90;;;;;;5037866;28;20794;-80
2023/04/20 05:42:07;;;;;;;19.27;15.00;;;5.10;99.90;;;;;;5042999;28;20456;-80
2023/04/20 05:44:35;;;;;;;21.13;14.37;;;5.10;99.90;;;;;;5042817;28;20851;-81
2023/04/20 05:47:05;;;;;;;23.97;17.50;;;5.10;99.90;;;;;;5042554;28;20460;-80
2023/04/20 05:49:32;;;;;;;20.43;14.60;;;5.20;99.90;;;;;;5037282;28;20453;-80
2023/04/20 05:52:00;;;;;;;20.03;14.10;;;5.10;99.90;;;;;;5033611;28;20553;-80
2023/04/20 05:54:27;;;;;;;21.37;15.77;;;5.10;99.90;;;;;;5043119;28;20515;-79
2023/04/20 05:56:54;;;;;;;21.17;16.33;;;5.20;99.90;;;;;;5041639;28;20967;-80
2023/04/20 05:59:22;;;;;;;20.50;14.80;;;5.20;99.90;;;;;;5037785;28;20465;-80
2023/04/20 06:01:49;;;;;;;19.50;14.90;;;5.20;99.90;;;;;;5043042;28;20851;-80
2023/04/20 06:04:16;;;;;;;16.17;13.70;;;5.20;99.90;;;;;;5040251;28;20465;-80
2023/04/20 06:06:43;;;;;;;17.10;12.50;;;5.20;99.90;;;;;;5038867;28;20990;-81
2023/04/20 06:09:10;;;;;;;21.03;15.23;;;5.30;99.90;;;;;;5037218;28;20931;-80
2023/04/20 06:11:37;;;;;;;19.03;13.90;;;5.40;99.90;;;;;;5042482;28;20485;-81
2023/04/20 06:14:04;;;;;;;17.17;11.80;;;5.30;99.90;;;;;;5039155;28;20476;-80
2023/04/20 06:16:33;;;;;;;18.00;14.17;;;5.30;99.90;;;;;;5035840;28;20917;-81
2023/04/20 06:19:00;;;;;;;18.63;13.90;;;5.30;99.90;;;;;;5042918;28;20518;-80
2023/04/20 06:21:27;;;;;;;19.40;12.73;;;5.30;99.90;;;;;;5040085;28;20453;-80
2023/04/20 06:23:55;;;;;;;22.43;14.90;;;5.30;99.90;;;;;;5036476;28;20457;-80
2023/04/20 06:26:22;;;;;;;19.47;12.93;;;5.30;99.90;;;;;;5040248;28;20720;-79
2023/04/20 06:28:50;;;;;;;18.47;13.63;;;5.30;99.90;;;;;;5043796;28;20932;-79
2023/04/20 06:31:17;;;;;;;19.80;13.60;;;5.40;99.90;;;;;;5033201;28;21829;-80
2023/04/20 06:33:45;;;;;;;18.17;13.97;;;5.30;99.90;;;;;;5039593;28;20994;-79
2023/04/20 06:36:12;;;;;;;18.70;14.10;;;5.40;99.90;;;;;;5041594;28;20465;-80
2023/04/20 06:38:39;;;;;;;22.77;14.73;;;5.50;99.90;;;;;;5041057;28;20889;-79
2023/04/20 06:41:06;;;;;;;18.10;12.97;;;5.50;99.90;;;;;;5045797;28;20897;-79
2023/04/20 06:43:33;;;;;;;19.63;13.40;;;5.50;99.90;;;;;;5043068;28;20538;-79
2023/04/20 06:46:00;;;;;;;18.57;12.20;;;5.50;99.90;;;;;;5040225;28;20461;-78
2023/04/20 06:48:27;;;;;;;18.63;12.80;;;5.60;99.90;;;;;;5042304;28;20499;-79
2023/04/20 06:50:56;;;;;;;17.53;13.10;;;5.60;99.90;;;;;;5035898;28;20492;-79
2023/04/20 06:53:23;;;;;;;19.37;14.63;;;5.60;99.90;;;;;;5045757;28;20457;-79
2023/04/20 06:55:50;;;;;;;20.20;13.20;;;5.60;99.90;;;;;;5039356;28;20504;-79
2023/04/20 06:58:16;;;;;;;19.50;14.40;;;5.60;99.90;;;;;;5044975;28;20481;-79
2023/04/20 07:00:43;;;;;;;19.73;12.57;;;5.70;99.90;;;;;;5044053;28;20489;-79
2023/04/20 07:03:10;;;;;;;15.60;11.63;;;5.70;99.90;;;;;;5043284;28;20468;-79
2023/04/20 07:05:37;;;;;;;18.60;13.47;;;5.60;99.90;;;;;;5045593;28;20526;-79
2023/04/20 07:08:07;;;;;;;17.57;12.10;;;5.70;99.90;;;;;;5040316;28;20534;-79
2023/04/20 07:10:33;;;;;;;16.50;11.63;;;5.70;99.90;;;;;;5038689;28;20495;-79
2023/04/20 07:13:00;;;;;;;17.10;12.23;;;5.60;99.90;;;;;;5040904;28;20512;-79
2023/04/20 07:15:27;;;;;;;18.83;14.63;;;5.60;99.90;;;;;;5043950;28;20445;-79
2023/04/20 07:17:54;;;;;;;15.53;11.77;;;5.70;99.90;;;;;;5044258;28;20924;-79
2023/04/20 07:20:21;;;;;;;16.57;13.17;;;5.70;99.90;;;;;;5042631;28;20457;-79
2023/04/20 07:22:48;;;;;;;16.67;12.20;;;5.80;99.90;;;;;;5042925;28;20968;-79
2023/04/20 07:25:17;;;;;;;13.47;12.07;;;5.80;99.90;;;;;;5044244;28;20476;-79
2023/04/20 07:27:44;;;;;;;12.70;8.93;;;5.80;99.90;;;;;;5042633;28;20469;-79
2023/04/20 07:30:11;;;;;;;16.25;12.30;;;5.80;99.90;;;;;;5045521;28;20534;-79
2023/04/20 07:32:40;;;;;;;18.33;12.67;;;5.80;99.90;;;;;;5042342;28;20445;-78
2023/04/20 07:35:08;;;;;;;16.50;13.00;;;5.90;99.90;;;;;;5038024;28;20464;-79
2023/04/20 07:37:35;;;;;;;18.47;13.23;;;5.90;99.90;;;;;;5040312;28;20481;-79
2023/04/20 07:40:04;;;;;;;12.53;10.50;;;6.00;99.90;;;;;;5046126;28;20441;-79
2023/04/20 07:42:35;;;;;;;14.50;10.90;;;6.00;99.90;;;;;;5044856;28;20835;-79
2023/04/20 07:45:02;;;;;;;17.20;13.60;;;6.00;99.90;;;;;;5041845;28;20949;-78
2023/04/20 07:47:29;;;;;;;13.33;11.27;;;6.10;99.90;;;;;;5042667;28;20452;-79
2023/04/20 07:49:57;;;;;;;23.53;12.70;;;6.10;99.90;;;;;;5045624;28;20556;-78
2023/04/20 07:52:24;;;;;;;18.90;14.03;;;6.10;99.90;;;;;;5037824;28;20513;-79
2023/04/20 07:54:52;;;;;;;16.93;12.00;;;6.20;99.90;;;;;;5047262;28;20459;-79
2023/04/20 07:57:19;;;;;;;16.43;12.83;;;6.30;99.90;;;;;;5039151;28;20583;-79
2023/04/20 07:59:48;;;;;;;13.97;12.10;;;6.30;99.90;;;;;;5041121;28;20469;-79
2023/04/20 08:02:15;;;;;;;15.43;11.00;;;6.20;99.90;;;;;;5042880;28;20442;-79
2023/04/20 08:04:43;;;;;;;16.30;12.60;;;6.30;99.90;;;;;;5037578;28;20754;-79
2023/04/20 08:07:10;;;;;;;16.20;12.07;;;6.40;99.90;;;;;;5043133;28;20944;-79
2023/04/20 08:09:37;;;;;;;17.67;13.13;;;6.60;99.90;;;;;;5037508;28;20465;-79
2023/04/20 08:12:04;;;;;;;14.13;10.77;;;6.40;99.90;;;;;;5044034;28;20493;-79
2023/04/20 08:14:32;;;;;;;24.03;14.00;;;6.50;99.90;;;;;;5039777;28;21004;-79
2023/04/20 08:17:00;;;;;;;15.07;11.27;;;6.60;99.90;;;;;;5036818;28;20489;-79
2023/04/20 08:19:27;;;;;;;65.60;33.73;;;6.60;99.90;;;;;;5042455;28;20879;-79
2023/04/20 08:21:54;;;;;;;53.67;29.00;;;6.60;99.90;;;;;;5039652;28;20469;-79
2023/04/20 08:24:21;;;;;;;49.63;34.23;;;6.80;99.90;;;;;;5043613;28;21480;-80
2023/04/20 08:26:48;;;;;;;28.00;20.40;;;6.90;99.90;;;;;;5038949;28;20511;-79
2023/04/20 08:29:15;;;;;;;47.47;26.23;;;7.00;99.90;;;;;;5038570;28;20933;-79
2023/04/20 08:31:42;;;;;;;113.63;66.77;;;6.90;99.90;;;;;;5035358;28;21066;-79
2023/04/20 08:34:12;;;;;;;21.20;14.70;;;7.10;99.90;;;;;;5043260;28;20499;-79
2023/04/20 08:36:39;;;;;;;17.03;13.50;;;7.20;99.90;;;;;;5036127;28;20945;-79
2023/04/20 08:39:08;;;;;;;25.10;18.33;;;7.20;99.90;;;;;;5035175;28;20784;-79
2023/04/20 08:41:35;;;;;;;19.63;16.20;;;7.40;99.90;;;;;;5044532;28;20858;-79
2023/04/20 08:44:03;;;;;;;19.77;14.80;;;7.60;99.90;;;;;;5039783;28;20500;-79
2023/04/20 08:46:30;;;;;;;16.13;12.30;;;7.50;99.90;;;;;;5039497;28;20470;-80
2023/04/20 08:49:00;;;;;;;18.13;14.30;;;7.70;99.90;;;;;;5031627;28;20489;-80
2023/04/20 08:51:29;;;;;;;16.47;12.43;;;7.80;99.90;;;;;;5036790;28;21237;-80
2023/04/20 08:53:58;;;;;;;20.77;16.60;;;7.90;99.90;;;;;;5045769;28;20545;-80
2023/04/20 08:56:35;;;;;;;13.37;11.40;;;8.10;99.90;;;;;;5031242;28;20911;-79
2023/04/20 08:59:04;;;;;;;22.00;13.73;;;8.20;99.90;;;;;;5036330;28;20449;-79
2023/04/20 09:01:32;;;;;;;14.47;12.03;;;8.40;99.90;;;;;;5042390;28;20655;-79
2023/04/20 09:04:00;;;;;;;15.60;13.80;;;8.50;99.90;;;;;;5035395;28;20736;-79
2023/04/20 09:06:28;;;;;;;14.00;12.23;;;8.70;99.90;;;;;;5045093;28;20960;-79
2023/04/20 09:08:55;;;;;;;15.00;11.57;;;8.90;99.90;;;;;;5033363;28;20535;-79
2023/04/20 09:11:23;;;;;;;13.07;10.50;;;8.80;99.90;;;;;;5040092;28;20576;-79
2023/04/20 09:14:03;;;;;;;13.00;11.70;;;8.90;99.90;;;;;;5037388;28;20460;-79
2023/04/20 09:16:30;;;;;;;13.07;11.70;;;9.10;99.90;;;;;;5039981;28;20459;-79
2023/04/20 09:18:58;;;;;;;15.87;12.80;;;9.30;99.90;;;;;;5041534;28;20468;-79
2023/04/20 09:21:26;;;;;;;21.43;11.73;;;9.40;99.90;;;;;;5034407;28;20475;-79
2023/04/20 09:24:00;;;;;;;15.33;10.67;;;9.70;99.90;;;;;;5035501;28;20474;-82
2023/04/20 09:26:27;;;;;;;15.00;11.90;;;9.90;99.90;;;;;;5040343;28;20457;-82
2023/04/20 09:28:54;;;;;;;13.90;11.10;;;10.30;99.90;;;;;;5043665;28;20506;-79
2023/04/20 09:31:22;;;;;;;17.37;10.93;;;10.40;99.90;;;;;;5042742;28;20480;-79
2023/04/20 09:34:00;;;;;;;14.40;10.97;;;10.90;99.90;;;;;;5041716;28;20476;-79
2023/04/20 09:36:38;;;;;;;15.30;12.50;;;10.80;99.90;;;;;;5042886;28;20998;-79
2023/04/20 09:39:08;;;;;;;15.80;12.03;;;10.20;99.90;;;;;;5037647;28;20499;-79
2023/04/20 09:41:36;;;;;;;11.60;10.20;;;10.10;99.90;;;;;;5032239;28;20532;-79
2023/04/20 09:44:04;;;;;;;11.63;10.00;;;10.40;99.90;;;;;;5039590;28;21014;-80
2023/04/20 09:46:33;;;;;;;14.67;11.40;;;10.30;99.90;;;;;;5043413;28;20461;-79
2023/04/20 09:49:01;;;;;;;12.77;10.27;;;10.40;99.90;;;;;;5040739;28;20508;-79
2023/04/20 09:51:28;;;;;;;14.70;12.27;;;10.10;99.90;;;;;;5027394;28;20551;-79
2023/04/20 09:53:57;;;;;;;14.23;10.23;;;10.20;99.90;;;;;;5039421;28;20445;-80
2023/04/20 09:56:26;;;;;;;15.77;11.20;;;10.00;99.90;;;;;;5033949;28;20497;-80
2023/04/20 09:58:54;;;;;;;14.87;11.97;;;10.00;99.90;;;;;;5037072;28;20473;-79
2023/04/20 10:01:22;;;;;;;15.83;9.83;;;9.90;99.90;;;;;;5038027;28;20798;-80
2023/04/20 10:03:50;;;;;;;11.83;10.57;;;9.90;99.90;;;;;;5035687;28;20932;-80
2023/04/20 10:06:24;;;;;;;12.97;9.43;;;9.80;99.90;;;;;;5042002;28;20453;-79
2023/04/20 10:08:51;;;;;;;14.17;10.50;;;9.60;99.90;;;;;;5040798;28;20468;-79
2023/04/20 10:11:28;;;;;;;15.30;11.60;;;9.60;99.90;;;;;;5039973;28;20550;-79
2023/04/20 10:13:55;;;;;;;15.13;13.07;;;9.70;99.90;;;;;;5049038;28;20449;-79
2023/04/20 10:16:22;;;;;;;14.57;11.67;;;9.70;99.90;;;;;;5047952;28;20448;-79
2023/04/20 10:19:00;;;;;;;15.10;11.60;;;9.90;99.90;;;;;;5047350;28;20468;-78
2023/04/20 10:21:28;;;;;;;14.87;11.43;;;9.90;99.90;;;;;;5048945;28;20498;-79
2023/04/20 10:23:55;;;;;;;13.60;10.40;;;10.40;99.90;;;;;;5044023;28;20602;-79
2023/04/20 10:26:23;;;;;;;15.40;11.93;;;10.80;99.90;;;;;;5044696;28;20488;-80
2023/04/20 10:28:51;;;;;;;14.77;10.60;;;11.00;99.90;;;;;;5047823;28;20886;-80
2023/04/20 10:31:20;;;;;;;13.03;10.57;;;11.00;99.90;;;;;;5040024;28;20470;-79
2023/04/20 10:33:54;;;;;;;13.20;9.90;;;10.60;99.90;;;;;;5049822;28;20495;-80
2023/04/20 10:36:24;;;;;;;11.37;10.27;;;10.70;99.90;;;;;;5044379;28;20507;-80
2023/04/20 10:38:52;;;;;;;10.37;8.53;;;10.50;99.90;;;;;;5050480;28;20453;-80
2023/04/20 10:41:19;;;;;;;14.17;9.97;;;10.60;99.90;;;;;;5034536;28;20469;-80
2023/04/20 10:43:46;;;;;;;9.70;8.70;;;10.90;99.90;;;;;;5048524;28;20552;-80
2023/04/20 10:46:16;;;;;;;8.83;7.87;;;11.50;99.90;;;;;;5047041;28;20472;-80
2023/04/20 10:48:54;;;;;;;11.73;10.30;;;11.60;99.90;;;;;;5043155;28;20559;-80
2023/04/20 10:51:21;;;;;;;10.13;9.13;;;11.70;99.90;;;;;;5040312;28;20469;-80
2023/04/20 10:54:03;;;;;;;9.70;8.23;;;11.80;99.90;;;;;;5044683;28;20561;-80
2023/04/20 10:56:41;;;;;;;13.03;10.80;;;11.80;99.90;;;;;;5029711;28;20476;-80
2023/04/20 10:59:08;;;;;;;12.03;9.77;;;12.10;99.90;;;;;;5044908;28;20465;-79
2023/04/20 11:01:36;;;;;;;11.97;9.87;;;12.20;99.90;;;;;;5041323;28;20460;-80
2023/04/20 11:04:04;;;;;;;13.10;10.03;;;12.30;99.90;;;;;;5042802;28;20460;-80
2023/04/20 11:06:31;;;;;;;10.53;9.20;;;12.60;99.90;;;;;;5046118;28;20456;-81
2023/04/20 11:08:58;;;;;;;11.37;9.17;;;12.90;99.90;;;;;;5047623;28;20934;-80
2023/04/20 11:11:27;;;;;;;10.40;9.00;;;12.90;99.90;;;;;;5041963;28;20464;-81
2023/04/20 11:14:07;;;;;;;9.43;8.50;;;12.60;99.90;;;;;;5047404;28;20445;-81
2023/04/20 11:16:36;;;;;;;10.73;8.87;;;12.50;99.90;;;;;;5049687;28;20476;-81
2023/04/20 11:19:03;;;;;;;11.00;9.80;;;12.50;99.90;;;;;;5047240;28;20461;-81
2023/04/20 11:21:38;;;;;;;14.57;11.20;;;12.50;99.90;;;;;;5044051;28;20464;-81
2023/04/20 11:24:06;;;;;;;10.50;9.43;;;12.70;99.90;;;;;;5033769;28;20473;-81
2023/04/20 11:26:39;;;;;;;9.87;8.90;;;12.90;99.90;;;;;;5045902;28;20483;-81
2023/04/20 11:29:06;;;;;;;12.70;11.10;;;12.80;99.90;;;;;;5043312;28;20480;-80
2023/04/20 11:31:34;;;;;;;13.30;11.13;;;12.80;99.90;;;;;;5045923;28;20459;-81
2023/04/20 11:34:02;;;;;;;14.87;11.53;;;12.80;99.90;;;;;;5045269;28;20523;-81
2023/04/20 11:36:29;;;;;;;12.07;10.23;;;12.90;99.90;;;;;;5046268;28;20449;-81
2023/04/20 11:39:08;;;;;;;13.00;10.47;;;12.80;99.90;;;;;;5036396;28;20527;-81
2023/04/20 11:41:37;;;;;;;15.10;11.63;;;12.60;99.90;;;;;;5041165;28;20461;-80
2023/04/20 11:44:05;;;;;;;12.43;10.33;;;12.50;99.90;;;;;;5041829;28;20449;-81
2023/04/20 11:46:36;;;;;;;12.27;10.57;;;12.30;99.90;;;;;;5037074;28;20449;-81
2023/04/20 11:49:04;;;;;;;11.17;9.20;;;12.40;99.90;;;;;;5032791;28;20893;-81
2023/04/20 11:51:31;;;;;;;9.77;8.73;;;12.60;99.90;;;;;;5036506;28;20474;-81
2023/04/20 11:53:58;;;;;;;12.77;10.60;;;13.00;99.90;;;;;;5039691;28;20461;-81
2023/04/20 11:56:26;;;;;;;11.80;9.40;;;13.10;99.90;;;;;;5043886;28;20551;-81
2023/04/20 11:58:52;;;;;;;13.27;10.00;;;13.50;99.90;;;;;;5044965;28;20514;-81
2023/04/20 12:01:20;;;;;;;12.33;10.20;;;13.80;99.90;;;;;;5044904;28;20920;-81
2023/04/20 12:03:47;;;;;;;14.63;11.03;;;13.90;99.90;;;;;;5035908;28;20458;-82
2023/04/20 12:06:15;;;;;;;11.30;10.10;;;14.00;99.90;;;;;;5044175;28;20560;-81
2023/04/20 12:08:43;;;;;;;11.37;9.70;;;14.30;99.90;;;;;;5033087;28;20480;-82
2023/04/20 12:11:10;;;;;;;10.80;9.90;;;14.40;99.90;;;;;;5044057;28;20453;-81
2023/04/20 12:13:36;;;;;;;12.10;10.80;;;14.00;99.90;;;;;;5036366;28;21055;-82
2023/04/20 12:16:04;;;;;;;12.07;10.00;;;13.90;99.90;;;;;;5044076;28;20456;-81
2023/04/20 12:18:30;;;;;;;12.53;11.10;;;14.10;99.90;;;;;;5037502;28;20513;-81
2023/04/20 12:20:58;;;;;;;11.40;9.90;;;14.30;99.90;;;;;;5040093;28;20465;-82
2023/04/20 12:23:27;;;;;;;12.20;10.47;;;14.40;99.90;;;;;;5043081;28;20540;-82
2023/04/20 12:25:54;;;;;;;11.50;10.30;;;14.50;99.90;;;;;;5038822;28;20477;-82
2023/04/20 12:28:21;;;;;;;12.30;11.07;;;14.90;99.90;;;;;;5044184;28;20472;-82
2023/04/20 12:30:48;;;;;;;10.80;9.80;;;15.20;99.90;;;;;;5038852;28;20458;-82
2023/04/20 12:33:15;;;;;;;11.43;9.53;;;15.00;99.90;;;;;;5037309;28;20492;-82
2023/04/20 12:35:43;;;;;;;11.37;10.13;;;14.90;99.90;;;;;;5042464;28;20457;-82
2023/04/20 12:38:10;;;;;;;9.23;8.33;;;15.00;99.90;;;;;;5037076;28;20464;-82